Time;durP1;ratioP1;P1;durP2;ratioP2;P2;SDS_P1;SDS_P2;PMS_P1;PMS_P2;Temp;Humidity;BMP_temperature;BMP_pressure;BME280_temperature;BME280_humidity;BME280_pressure;Samples;Min_cycle;Max_cycle;Signal;HPM_P1;HPM_P2
2022/10/30 00:03:37;;;;;;;22.10;13.40;;;;;;;10.70;100.00;99163.39;214521;1309;22470;-74
2022/10/30 00:08:39;;;;;;;26.60;15.00;;;;;;;10.65;100.00;99162.23;214604;1309;24253;-74
2022/10/30 00:13:43;;;;;;;24.20;13.70;;;;;;;10.60;100.00;99158.56;214588;1300;22466;-73
2022/10/30 00:18:45;;;;;;;26.00;14.50;;;;;;;10.56;100.00;99161.39;214763;1309;22490;-73
2022/10/30 00:23:49;;;;;;;26.70;14.60;;;;;;;10.51;100.00;99159.77;214661;1303;25318;-73
2022/10/30 00:28:53;;;;;;;30.10;16.60;;;;;;;10.47;100.00;99155.88;214972;1309;24337;-73
2022/10/30 00:33:55;;;;;;;24.80;14.50;;;;;;;10.43;100.00;99166.61;214792;1309;25485;-72
2022/10/30 00:38:57;;;;;;;28.90;15.50;;;;;;;10.42;100.00;99168.87;214745;1309;22576;-73
2022/10/30 00:43:59;;;;;;;26.70;15.60;;;;;;;10.40;100.00;99162.61;214558;1309;22466;-73
2022/10/30 00:49:12;;;;;;;28.50;15.90;;;;;;;10.37;100.00;99155.94;214741;1307;25763;-74
2022/10/30 00:54:16;;;;;;;27.50;15.10;;;;;;;10.33;100.00;99151.13;214589;1309;22583;-73
2022/10/30 00:59:29;;;;;;;33.70;16.90;;;;;;;10.30;100.00;99153.91;214884;1304;22622;-73
2022/10/30 01:04:34;;;;;;;31.30;16.70;;;;;;;10.26;100.00;99151.54;214673;1309;22478;-73
2022/10/30 01:09:38;;;;;;;32.70;17.70;;;;;;;10.24;100.00;99145.96;214584;1309;24407;-72
2022/10/30 01:14:45;;;;;;;34.20;17.40;;;;;;;10.25;100.00;99154.42;214626;1309;22642;-73
2022/10/30 01:19:52;;;;;;;32.30;17.90;;;;;;;10.26;100.00;99155.92;214759;1308;22484;-73
2022/10/30 01:25:08;;;;;;;33.10;17.50;;;;;;;10.25;100.00;99154.46;214783;1307;22617;-73
2022/10/30 01:30:47;;;;;;;32.90;17.40;;;;;;;10.23;100.00;99150.79;214780;1309;24327;-72
2022/10/30 01:36:21;;;;;;;41.50;19.50;;;;;;;10.19;100.00;99150.81;214729;1309;22475;-73
2022/10/30 01:41:23;;;;;;;34.60;18.10;;;;;;;10.17;100.00;99149.98;214467;1304;22476;-72
2022/10/30 01:46:25;;;;;;;32.30;16.90;;;;;;;10.15;100.00;99156.79;214610;1309;22633;-73
2022/10/30 01:51:40;;;;;;;35.30;18.20;;;;;;;10.13;100.00;99158.13;214609;1309;24273;-73
2022/10/30 01:57:12;;;;;;;31.20;15.90;;;;;;;10.13;100.00;99158.61;214673;1295;22531;-73
2022/10/30 02:02:15;;;;;;;30.10;16.30;;;;;;;10.12;100.00;99158.62;214539;1309;22479;-73
2022/10/30 02:07:17;;;;;;;29.70;16.00;;;;;;;10.09;100.00;99151.98;214523;1309;159100;-73
2022/10/30 02:12:23;;;;;;;29.40;15.30;;;;;;;10.07;100.00;99151.46;214908;1309;22487;-73
2022/10/30 02:17:26;;;;;;;34.40;17.50;;;;;;;10.05;100.00;99151.16;214411;1299;22709;-73
2022/10/30 02:22:28;;;;;;;31.10;15.60;;;;;;;10.02;100.00;99149.56;214585;1309;25286;-73
2022/10/30 02:27:30;;;;;;;33.10;17.50;;;;;;;9.99;100.00;99147.06;214548;1307;22541;-73
2022/10/30 02:32:33;;;;;;;35.50;18.90;;;;;;;9.97;100.00;99142.85;214700;1309;24578;-73
2022/10/30 02:37:35;;;;;;;38.10;18.50;;;;;;;9.94;100.00;99127.76;214570;1309;22524;-73
2022/10/30 02:42:37;;;;;;;30.40;15.10;;;;;;;9.90;100.00;99112.05;214708;1306;22505;-73
2022/10/30 02:47:39;;;;;;;42.40;19.80;;;;;;;9.87;100.00;99103.56;214642;1309;22745;-73
2022/10/30 02:52:40;;;;;;;38.90;19.70;;;;;;;9.87;100.00;99104.09;214592;1309;24116;-73
2022/10/30 02:57:42;;;;;;;33.40;17.50;;;;;;;9.88;100.00;99112.38;214808;1309;22526;-74
2022/10/30 03:02:45;;;;;;;40.70;18.90;;;;;;;9.90;100.00;99120.08;214567;1309;26393;-74
2022/10/30 03:07:47;;;;;;;42.10;18.90;;;;;;;9.92;100.00;99136.02;214737;1305;22517;-73
2022/10/30 03:12:49;;;;;;;39.60;18.60;;;;;;;9.94;100.00;99143.86;214717;1308;22482;-73
2022/10/30 03:17:51;;;;;;;33.30;16.70;;;;;;;9.95;100.00;99147.73;214655;1309;22490;-73
2022/10/30 03:22:53;;;;;;;35.50;17.90;;;;;;;9.95;100.00;99155.98;214742;1308;22479;-75
2022/10/30 03:27:55;;;;;;;33.80;17.20;;;;;;;9.94;100.00;99156.83;214517;1302;22493;-73
2022/10/30 03:32:58;;;;;;;42.10;18.80;;;;;;;9.92;100.00;99157.80;214684;1309;24270;-73
2022/10/30 03:38:00;;;;;;;36.40;18.00;;;;;;;9.89;100.00;99154.22;214715;1309;22489;-73
2022/10/30 03:43:02;;;;;;;37.50;18.70;;;;;;;9.87;100.00;99150.44;214582;1309;22581;-73
2022/10/30 03:48:05;;;;;;;39.60;19.00;;;;;;;9.85;100.00;99149.26;214748;1309;25091;-73
2022/10/30 03:53:08;;;;;;;40.30;18.80;;;;;;;9.80;100.00;99150.40;214781;1309;22528;-73
2022/10/30 03:58:10;;;;;;;42.10;19.00;;;;;;;9.77;100.00;99144.05;214549;1309;22478;-73
2022/10/30 04:03:12;;;;;;;41.40;20.10;;;;;;;9.74;100.00;99142.61;214533;1309;25352;-73
2022/10/30 04:08:16;;;;;;;39.10;18.50;;;;;;;9.74;100.00;99140.68;214783;1294;22515;-74
2022/10/30 04:13:21;;;;;;;38.70;18.00;;;;;;;9.75;100.00;99132.83;214627;1309;24437;-73
2022/10/30 04:18:26;;;;;;;38.30;19.20;;;;;;;9.79;100.00;99129.86;214628;1309;22495;-74
2022/10/30 04:23:28;;;;;;;45.20;20.10;;;;;;;9.80;100.00;99124.40;214807;1309;22481;-73
2022/10/30 04:28:30;;;;;;;42.20;20.00;;;;;;;9.84;100.00;99131.17;214692;1305;22479;-73
2022/10/30 04:33:32;;;;;;;42.50;20.60;;;;;;;9.88;100.00;99141.81;214581;1309;22529;-73
2022/10/30 04:38:34;;;;;;;38.70;19.50;;;;;;;9.93;100.00;99153.93;214621;1309;22486;-74
2022/10/30 04:43:39;;;;;;;39.90;20.30;;;;;;;9.97;100.00;99149.91;214760;1309;22523;-74
2022/10/30 04:48:43;;;;;;;43.20;19.80;;;;;;;9.99;100.00;99150.86;214748;1309;22556;-72
2022/10/30 04:53:47;;;;;;;39.30;19.50;;;;;;;9.99;100.00;99152.36;214538;1309;22479;-73
2022/10/30 04:58:50;;;;;;;48.50;22.50;;;;;;;9.99;100.00;99151.77;214711;1308;22582;-74
2022/10/30 05:03:52;;;;;;;48.10;22.20;;;;;;;9.99;100.00;99138.81;214683;1309;22491;-74
2022/10/30 05:08:56;;;;;;;51.10;24.00;;;;;;;10.02;100.00;99130.66;214475;1309;22488;-74
2022/10/30 05:14:06;;;;;;;58.20;24.30;;;;;;;10.04;100.00;99128.24;214512;1309;24506;-74
2022/10/30 05:19:08;;;;;;;48.00;24.10;;;;;;;10.08;100.00;99131.91;214717;1309;22538;-73
2022/10/30 05:24:17;;;;;;;53.30;25.50;;;;;;;10.12;100.00;99131.25;214668;1309;24380;-74
2022/10/30 05:29:19;;;;;;;56.60;23.10;;;;;;;10.16;100.00;99135.46;214514;1309;22519;-74
2022/10/30 05:34:21;;;;;;;50.40;22.90;;;;;;;10.19;100.00;99139.57;214514;1309;25250;-73
2022/10/30 05:39:24;;;;;;;52.30;21.90;;;;;;;10.23;100.00;99141.42;214647;1309;22519;-74
2022/10/30 05:44:26;;;;;;;44.10;20.10;;;;;;;10.26;100.00;99137.98;214763;1309;23772;-74
2022/10/30 05:49:47;;;;;;;41.80;19.50;;;;;;;10.29;100.00;99138.11;214690;1309;22471;-74
2022/10/30 05:54:52;;;;;;;46.90;21.40;;;;;;;10.32;100.00;99138.02;214711;1285;24233;-73
2022/10/30 06:00:13;;;;;;;49.70;22.80;;;;;;;10.35;100.00;99145.77;214632;1293;22591;-74
2022/10/30 06:05:18;;;;;;;41.80;19.20;;;;;;;10.39;100.00;99148.95;214754;1309;22475;-73
2022/10/30 06:10:21;;;;;;;45.00;20.20;;;;;;;10.44;100.00;99150.27;214577;1309;24333;-73
2022/10/30 06:15:39;;;;;;;41.10;19.70;;;;;;;10.49;100.00;99154.58;214598;1309;22477;-73
2022/10/30 06:20:41;;;;;;;37.40;18.30;;;;;;;10.55;100.00;99153.74;214733;1309;25408;-74
2022/10/30 06:26:07;;;;;;;45.20;20.30;;;;;;;10.59;100.00;99153.05;214513;1306;22966;-73
2022/10/30 06:31:18;;;;;;;38.20;18.20;;;;;;;10.65;100.00;99158.77;214765;1309;25503;-73
2022/10/30 06:36:24;;;;;;;42.10;18.70;;;;;;;10.70;100.00;99159.41;214498;1309;22503;-73
2022/10/30 06:41:27;;;;;;;34.90;17.50;;;;;;;10.75;100.00;99164.63;214585;1309;22572;-73
2022/10/30 06:46:59;;;;;;;38.90;18.60;;;;;;;10.83;100.00;99164.09;214553;1309;23787;-74
2022/10/30 06:52:01;;;;;;;35.60;18.30;;;;;;;10.90;100.00;99162.95;214506;1309;22477;-74
2022/10/30 06:57:03;;;;;;;33.60;16.10;;;;;;;10.97;100.00;99165.67;214744;1309;25293;-73
2022/10/30 07:02:24;;;;;;;38.60;17.90;;;;;;;11.03;100.00;99167.14;214835;1309;24331;-73
2022/10/30 07:07:30;;;;;;;34.60;16.70;;;;;;;11.08;100.00;99164.73;214884;1309;22641;-74
2022/10/30 07:12:32;;;;;;;37.00;18.10;;;;;;;11.16;100.00;99164.67;214739;1309;23190;-74
2022/10/30 07:18:01;;;;;;;31.00;16.20;;;;;;;11.24;100.00;99169.14;214713;1308;22467;-73
2022/10/30 07:23:06;;;;;;;30.70;16.40;;;;;;;11.33;100.00;99170.08;214548;1309;22530;-73
2022/10/30 07:28:08;;;;;;;30.40;16.30;;;;;;;11.41;100.00;99175.74;214744;1309;22508;-73
2022/10/30 07:33:16;;;;;;;34.10;16.70;;;;;;;11.48;100.00;99172.83;214585;1309;25410;-74
2022/10/30 07:38:29;;;;;;;38.80;18.30;;;;;;;11.61;100.00;99175.17;214737;1304;22493;-73
2022/10/30 07:43:41;;;;;;;34.80;16.10;;;;;;;11.78;100.00;99172.50;214705;1296;22478;-73
2022/10/30 07:49:02;;;;;;;30.90;16.20;;;;;;;12.01;100.00;99171.23;214752;1309;22476;-73
2022/10/30 07:54:15;;;;;;;30.60;17.00;;;;;;;12.10;100.00;99167.69;214764;1309;22696;-75
2022/10/30 07:59:17;;;;;;;36.30;18.00;;;;;;;12.22;100.00;99168.44;214623;1309;24243;-73
2022/10/30 08:04:58;;;;;;;32.20;17.20;;;;;;;12.34;100.00;99171.40;213871;1315;22541;-76
2022/10/30 08:10:29;;;;;;;34.40;17.30;;;;;;;12.43;100.00;99163.33;214188;1309;25438;-73
2022/10/30 08:15:31;;;;;;;53.40;26.80;;;;;;;12.57;100.00;99161.57;214856;1309;22752;-73
2022/10/30 08:20:34;;;;;;;29.80;17.80;;;;;;;12.84;100.00;99164.48;214756;1309;22600;-74
2022/10/30 08:25:36;;;;;;;25.40;14.50;;;;;;;13.12;100.00;99161.76;214656;1305;22949;-73
2022/10/30 08:30:38;;;;;;;34.90;17.30;;;;;;;13.34;100.00;99160.35;214455;1309;22482;-74
2022/10/30 08:35:49;;;;;;;26.70;15.70;;;;;;;13.61;100.00;99158.27;214745;1297;22929;-73
2022/10/30 08:40:51;;;;;;;26.00;15.70;;;;;;;13.85;100.00;99157.14;214666;1309;22625;-73
2022/10/30 08:45:57;;;;;;;30.70;16.60;;;;;;;13.93;100.00;99156.05;214834;1309;22614;-73
2022/10/30 08:51:02;;;;;;;25.80;14.00;;;;;;;14.03;100.00;99162.81;214646;1295;22475;-73
2022/10/30 08:56:08;;;;;;;27.20;14.80;;;;;;;14.02;100.00;99159.86;214634;1304;22477;-73
2022/10/30 09:01:19;;;;;;;24.80;14.70;;;;;;;14.08;100.00;99154.79;214673;1304;22524;-74
2022/10/30 09:06:40;;;;;;;25.30;15.20;;;;;;;14.17;100.00;99152.55;214637;1309;22468;-73
2022/10/30 09:12:01;;;;;;;27.80;16.40;;;;;;;14.25;100.00;99159.70;214705;1309;22468;-73
2022/10/30 09:17:06;;;;;;;25.60;14.80;;;;;;;14.42;100.00;99155.38;214579;1309;23418;-74
2022/10/30 09:22:10;;;;;;;22.20;13.30;;;;;;;14.60;100.00;99159.91;214664;1301;22508;-74
2022/10/30 09:27:14;;;;;;;22.50;13.30;;;;;;;14.77;100.00;99161.03;214530;1309;22508;-73
2022/10/30 09:32:22;;;;;;;26.10;13.50;;;;;;;14.92;100.00;99164.88;214712;1304;22511;-73
2022/10/30 09:37:36;;;;;;;19.50;11.40;;;;;;;15.12;100.00;99163.67;214642;1309;22475;-74
2022/10/30 09:42:45;;;;;;;19.90;11.70;;;;;;;15.33;100.00;99157.37;214419;1309;22475;-73
2022/10/30 09:48:00;;;;;;;23.40;12.50;;;;;;;15.49;100.00;99154.29;214657;1309;22538;-75
2022/10/30 09:53:20;;;;;;;21.90;11.80;;;;;;;15.58;100.00;99160.11;214442;1304;22487;-73
2022/10/30 09:58:45;;;;;;;20.10;12.50;;;;;;;15.70;100.00;99160.81;214609;1309;22467;-74
2022/10/30 10:04:19;;;;;;;22.30;12.00;;;;;;;15.85;100.00;99150.75;214569;1309;22464;-73
2022/10/30 10:09:49;;;;;;;21.60;12.80;;;;;;;16.08;100.00;99151.75;214606;1309;24345;-74
2022/10/30 10:15:37;;;;;;;20.10;12.20;;;;;;;16.33;100.00;99150.35;214681;1294;22609;-72
2022/10/30 10:20:42;;;;;;;19.70;11.70;;;;;;;16.54;100.00;99145.49;214660;1309;24259;-74
2022/10/30 10:25:52;;;;;;;22.50;13.60;;;;;;;16.71;99.72;99141.50;214794;1309;22522;-74
2022/10/30 10:31:03;;;;;;;;;;;;;;;16.95;99.90;99143.45;214724;1309;24561;-74
2022/10/30 10:36:29;;;;;;;18.30;12.10;;;;;;;17.20;99.25;99142.56;214699;1309;24282;-74
2022/10/30 10:41:37;;;;;;;20.00;11.70;;;;;;;17.45;98.58;99134.61;214750;1304;23991;-73
2022/10/30 10:47:32;;;;;;;25.20;13.10;;;;;;;17.66;97.19;99124.45;214746;1309;25314;-73
2022/10/30 10:52:46;;;;;;;15.70;10.00;;;;;;;17.98;96.99;99113.69;213662;1317;25281;-73
2022/10/30 10:57:50;;;;;;;16.70;9.60;;;;;;;18.27;95.21;99111.98;214346;1309;24349;-73
2022/10/30 11:03:02;;;;;;;15.20;9.50;;;;;;;18.60;94.66;99112.09;214692;1309;24276;-74
2022/10/30 11:08:29;;;;;;;17.40;9.10;;;;;;;18.95;93.29;99113.71;214817;1309;22499;-73
2022/10/30 11:13:44;;;;;;;14.60;9.50;;;;;;;19.27;91.90;99109.94;214663;1309;22620;-74
2022/10/30 11:18:49;;;;;;;13.30;8.40;;;;;;;19.50;90.97;99105.50;214609;1309;24527;-74
2022/10/30 11:23:52;;;;;;;14.40;10.20;;;;;;;19.80;91.78;99101.52;214716;1297;22631;-74
2022/10/30 11:29:03;;;;;;;10.50;7.40;;;;;;;20.11;91.72;99098.03;214651;1309;22468;-73
2022/10/30 11:34:17;;;;;;;13.70;8.70;;;;;;;20.22;88.65;99089.80;214738;1309;22609;-73
2022/10/30 11:39:26;;;;;;;12.10;8.20;;;;;;;20.25;88.07;99095.77;214768;1309;23197;-72
2022/10/30 11:44:36;;;;;;;16.80;7.60;;;;;;;20.25;86.60;99096.11;214673;1309;23793;-72
2022/10/30 11:49:43;;;;;;;15.00;7.30;;;;;;;20.25;84.72;99090.80;214701;1310;22479;-72
2022/10/30 11:54:50;;;;;;;14.60;6.80;;;;;;;20.30;84.66;99083.88;214914;1309;24340;-73
2022/10/30 11:59:54;;;;;;;15.80;9.40;;;;;;;20.37;84.94;99090.37;214778;1309;24335;-72
2022/10/30 12:05:01;;;;;;;19.40;10.60;;;;;;;20.43;85.15;99090.13;214623;1304;23286;-74
2022/10/30 12:10:03;;;;;;;11.80;7.80;;;;;;;20.48;84.25;99086.23;214800;1309;22550;-74
2022/10/30 12:15:08;;;;;;;13.40;8.70;;;;;;;20.45;83.93;99081.79;214659;1309;22548;-73
2022/10/30 12:20:14;;;;;;;14.50;8.70;;;;;;;20.41;83.21;99077.16;214745;1309;22473;-73
2022/10/30 12:25:27;;;;;;;14.60;8.30;;;;;;;20.40;83.07;99078.11;214688;1309;22476;-73
2022/10/30 12:30:34;;;;;;;13.40;7.90;;;;;;;20.43;82.28;99078.56;214753;1303;22584;-74
2022/10/30 12:35:45;;;;;;;11.10;7.40;;;;;;;20.41;82.02;99074.15;214761;1310;24340;-73
2022/10/30 12:41:01;;;;;;;12.90;8.50;;;;;;;20.38;81.83;99070.01;214748;1309;24316;-73
2022/10/30 12:46:12;;;;;;;20.40;11.20;;;;;;;20.41;82.65;99068.08;214715;1309;22525;-73
2022/10/30 12:51:37;;;;;;;10.80;7.60;;;;;;;20.44;82.28;99064.42;214712;1309;24306;-74
2022/10/30 12:56:45;;;;;;;13.70;7.70;;;;;;;20.42;81.83;99066.64;214585;1310;24259;-73
2022/10/30 13:01:53;;;;;;;125.60;81.30;;;;;;;20.44;81.84;99066.13;214750;1309;24273;-73
2022/10/30 13:07:14;;;;;;;19.00;14.70;;;;;;;20.48;82.27;99063.78;214524;1310;22493;-73
2022/10/30 13:12:24;;;;;;;14.30;9.80;;;;;;;20.48;80.93;99065.86;214651;1309;22481;-74
2022/10/30 13:17:27;;;;;;;12.20;7.20;;;;;;;20.43;80.94;99059.90;214728;1309;22658;-72
2022/10/30 13:22:59;;;;;;;8.20;5.70;;;;;;;20.25;80.46;99059.49;214715;1310;25328;-76
2022/10/30 13:28:11;;;;;;;9.70;6.20;;;;;;;20.09;80.15;99047.84;214903;1309;25226;-73
2022/10/30 13:33:21;;;;;;;10.90;6.70;;;;;;;20.07;80.18;99039.48;214756;1309;25307;-74
2022/10/30 13:38:42;;;;;;;8.10;6.20;;;;;;;20.22;80.90;99037.48;214869;1300;22611;-73
2022/10/30 13:43:57;;;;;;;10.20;5.50;;;;;;;20.33;79.83;99038.42;214801;1309;22474;-73
2022/10/30 13:49:17;;;;;;;10.10;5.90;;;;;;;20.34;79.30;99044.51;214632;1309;22474;-73
2022/10/30 13:54:25;;;;;;;11.90;5.50;;;;;;;20.22;79.22;99037.34;214672;1308;22464;-73
2022/10/30 13:59:55;;;;;;;9.80;5.50;;;;;;;20.14;79.55;99041.30;214742;1309;22488;-74
2022/10/30 14:05:21;;;;;;;6.90;5.40;;;;;;;20.05;79.98;99031.74;214753;1309;22446;-73
2022/10/30 14:10:41;;;;;;;9.60;5.10;;;;;;;19.97;80.16;99031.36;214558;1303;110490;-73
2022/10/30 14:15:45;;;;;;;7.80;5.10;;;;;;;19.87;80.40;99024.00;214592;1309;25337;-72
2022/10/30 14:20:52;;;;;;;7.80;5.20;;;;;;;19.81;80.78;99032.09;214879;1309;22748;-74
2022/10/30 14:26:03;;;;;;;9.20;6.20;;;;;;;19.73;80.67;99045.39;214704;1309;22608;-73
2022/10/30 14:31:11;;;;;;;8.80;6.10;;;;;;;19.64;80.62;99049.17;214773;1301;22554;-72
2022/10/30 14:36:21;;;;;;;8.40;5.60;;;;;;;19.50;80.82;99047.17;214769;1309;22598;-73
2022/10/30 14:41:34;;;;;;;8.40;5.00;;;;;;;19.31;81.06;99045.44;214740;1309;22473;-74
2022/10/30 14:47:05;;;;;;;9.30;4.90;;;;;;;19.07;80.81;99043.20;214763;1308;25096;-72
2022/10/30 14:52:36;;;;;;;8.30;5.40;;;;;;;18.75;81.28;99042.98;214447;1309;25269;-74
2022/10/30 14:58:00;;;;;;;14.00;7.80;;;;;;;18.50;81.44;99042.73;214601;1309;22492;-73
2022/10/30 15:03:14;;;;;;;10.10;5.70;;;;;;;18.21;81.82;99038.35;214603;1308;22972;-72
2022/10/30 15:08:47;;;;;;;11.10;6.00;;;;;;;17.97;82.35;99035.23;214662;1309;22949;-73
2022/10/30 15:13:53;;;;;;;17.80;7.20;;;;;;;17.78;83.14;99027.70;214558;1308;22465;-73
2022/10/30 15:19:04;;;;;;;11.30;7.10;;;;;;;17.61;83.50;99031.00;214720;1301;22458;-73
2022/10/30 15:24:15;;;;;;;10.90;6.90;;;;;;;17.41;83.81;99027.85;214572;1306;24330;-73
2022/10/30 15:29:19;;;;;;;13.00;8.40;;;;;;;17.23;84.15;99023.42;214715;1309;22482;-72
2022/10/30 15:34:22;;;;;;;9.90;7.20;;;;;;;17.03;84.45;99022.33;214808;1309;24311;-73
2022/10/30 15:39:24;;;;;;;10.30;6.70;;;;;;;16.80;84.44;99024.23;214844;1309;23901;-74
2022/10/30 15:44:29;;;;;;;12.20;7.10;;;;;;;16.57;84.77;99018.24;214494;1309;23490;-73
2022/10/30 15:49:33;;;;;;;13.70;7.90;;;;;;;16.37;85.12;99023.06;214746;1309;24975;-74
2022/10/30 15:54:38;;;;;;;13.90;9.10;;;;;;;16.20;85.51;99023.66;214834;1309;25347;-73
2022/10/30 15:59:40;;;;;;;16.70;9.30;;;;;;;16.08;86.05;99016.27;214751;1310;22609;-74
2022/10/30 16:04:43;;;;;;;20.30;10.80;;;;;;;15.97;86.51;99013.70;214812;1309;22941;-72
2022/10/30 16:10:00;;;;;;;19.90;12.40;;;;;;;15.86;86.73;99014.99;214654;1309;22581;-73
2022/10/30 16:15:23;;;;;;;22.80;12.30;;;;;;;15.74;86.96;99009.27;214808;1309;26527;-73
2022/10/30 16:20:26;;;;;;;20.30;12.70;;;;;;;15.60;87.19;99007.70;214663;1309;22461;-74
2022/10/30 16:25:28;;;;;;;16.00;10.00;;;;;;;15.49;87.53;99004.15;214671;1309;25536;-73
2022/10/30 16:30:32;;;;;;;13.20;9.20;;;;;;;15.38;87.72;99000.73;214814;1301;22579;-74
2022/10/30 16:35:35;;;;;;;14.00;9.00;;;;;;;15.27;87.84;99002.39;214885;1309;25454;-73
2022/10/30 16:40:37;;;;;;;16.00;9.70;;;;;;;15.16;88.02;98994.56;214497;1309;25382;-75
2022/10/30 16:45:46;;;;;;;15.60;10.00;;;;;;;15.04;88.18;98992.45;214850;1309;22543;-73
2022/10/30 16:50:49;;;;;;;12.70;7.30;;;;;;;14.93;88.41;98995.55;214480;1304;22482;-73
2022/10/30 16:55:52;;;;;;;13.70;8.60;;;;;;;14.83;88.69;98995.86;214405;1309;22480;-73
2022/10/30 17:01:01;;;;;;;14.80;8.80;;;;;;;14.74;88.93;98996.34;214737;1309;22621;-73
2022/10/30 17:06:06;;;;;;;16.10;9.90;;;;;;;14.66;89.06;98997.16;214717;1309;22986;-73
2022/10/30 17:11:31;;;;;;;18.40;11.50;;;;;;;14.57;89.24;98996.45;214483;1309;22489;-74
2022/10/30 17:16:38;;;;;;;16.70;10.50;;;;;;;14.44;89.23;99003.77;214526;1309;24255;-73
2022/10/30 17:21:41;;;;;;;14.20;9.70;;;;;;;14.32;89.33;99001.91;214712;1309;22684;-73
2022/10/30 17:26:53;;;;;;;17.60;11.00;;;;;;;14.19;89.50;99006.33;214712;1307;22465;-72
2022/10/30 17:31:57;;;;;;;21.30;11.40;;;;;;;14.06;89.73;99009.21;214535;1309;25923;-73
2022/10/30 17:36:59;;;;;;;20.50;11.00;;;;;;;13.95;89.93;99006.93;214542;1309;22640;-73
2022/10/30 17:42:01;;;;;;;17.50;11.20;;;;;;;13.82;90.13;99006.84;214451;1309;24476;-74
2022/10/30 17:47:15;;;;;;;18.30;10.90;;;;;;;13.70;90.27;99011.96;214740;1309;25286;-74
2022/10/30 17:52:21;;;;;;;19.90;11.90;;;;;;;13.58;90.42;99016.09;214652;1309;22904;-73
2022/10/30 17:57:25;;;;;;;19.40;10.20;;;;;;;13.48;90.67;99016.25;214687;1309;25326;-72
2022/10/30 18:02:27;;;;;;;18.20;11.30;;;;;;;13.39;90.87;99015.91;214600;1309;22487;-73
2022/10/30 18:07:29;;;;;;;21.70;11.80;;;;;;;13.32;91.15;99016.20;214581;1309;25303;-73
2022/10/30 18:12:31;;;;;;;24.30;12.30;;;;;;;13.28;91.42;99016.14;214605;1309;25370;-74
2022/10/30 18:17:33;;;;;;;21.00;11.90;;;;;;;13.25;91.71;99019.34;214791;1309;22675;-73
2022/10/30 18:22:35;;;;;;;24.50;14.40;;;;;;;13.18;91.71;99012.95;214714;1309;22471;-73
2022/10/30 18:27:36;;;;;;;21.90;12.80;;;;;;;13.08;91.76;99007.89;214746;1309;25380;-73
2022/10/30 18:32:38;;;;;;;20.40;11.40;;;;;;;12.96;91.83;99009.98;214498;1309;22491;-73
2022/10/30 18:37:40;;;;;;;19.40;11.20;;;;;;;12.83;92.02;99008.94;214480;1309;22554;-73
2022/10/30 18:42:42;;;;;;;21.30;12.00;;;;;;;12.71;92.43;99008.24;214736;1309;25228;-72
2022/10/30 18:47:45;;;;;;;20.60;12.60;;;;;;;12.63;92.68;99005.80;214683;1309;22523;-73
2022/10/30 18:52:48;;;;;;;26.60;13.50;;;;;;;12.59;93.04;99007.06;214601;1309;22511;-74
2022/10/30 18:57:51;;;;;;;26.30;15.00;;;;;;;12.57;93.30;99002.85;214619;1309;22671;-73
2022/10/30 19:02:54;;;;;;;27.70;15.20;;;;;;;12.53;93.50;99006.67;214462;1309;25277;-73
2022/10/30 19:08:00;;;;;;;24.10;13.10;;;;;;;12.50;93.68;99008.13;214559;1309;25032;-73
2022/10/30 19:13:17;;;;;;;21.00;12.40;;;;;;;12.47;93.85;99008.92;214752;1309;22528;-73
2022/10/30 19:18:24;;;;;;;19.90;11.00;;;;;;;12.43;93.84;99002.12;214746;1309;22531;-73
2022/10/30 19:23:26;;;;;;;22.70;13.40;;;;;;;12.35;93.70;99000.96;214727;1309;25276;-73
2022/10/30 19:28:29;;;;;;;25.20;12.40;;;;;;;12.26;93.81;99008.73;214623;1309;22498;-74
2022/10/30 19:33:31;;;;;;;27.20;13.40;;;;;;;12.17;94.05;99015.20;214638;1304;24947;-73
2022/10/30 19:38:33;;;;;;;26.50;13.10;;;;;;;12.07;94.02;99018.77;214797;1309;22686;-74
2022/10/30 19:43:35;;;;;;;30.40;14.40;;;;;;;11.98;94.24;99024.67;214765;1309;25327;-73
2022/10/30 19:48:37;;;;;;;27.50;14.80;;;;;;;11.91;94.41;99027.88;214601;1309;24330;-72
2022/10/30 19:53:58;;;;;;;27.20;14.50;;;;;;;11.82;94.60;99026.88;214556;1309;24356;-72
2022/10/30 19:59:00;;;;;;;29.00;16.00;;;;;;;11.75;94.55;99034.36;214613;1309;24233;-72
2022/10/30 20:04:02;;;;;;;29.20;17.30;;;;;;;11.68;94.56;99033.88;214574;1300;22483;-73
2022/10/30 20:09:04;;;;;;;34.30;17.90;;;;;;;11.61;94.67;99041.16;214564;1309;22528;-73
2022/10/30 20:14:06;;;;;;;26.50;16.20;;;;;;;11.54;94.89;99039.74;214520;1309;24254;-72
2022/10/30 20:19:28;;;;;;;28.90;15.80;;;;;;;11.46;94.94;99039.52;214557;1309;23776;-73
2022/10/30 20:24:30;;;;;;;32.00;15.80;;;;;;;11.37;95.07;99038.87;214943;1309;24341;-73
2022/10/30 20:29:35;;;;;;;25.30;15.60;;;;;;;11.32;95.48;99038.50;214500;1309;22531;-73
2022/10/30 20:34:37;;;;;;;28.90;15.50;;;;;;;11.26;95.44;99044.21;214736;1309;22483;-74
2022/10/30 20:39:39;;;;;;;30.10;15.10;;;;;;;11.21;95.62;99045.40;214471;1307;23243;-72
2022/10/30 20:44:41;;;;;;;29.30;15.70;;;;;;;11.15;95.65;99048.63;214617;1309;22526;-73
2022/10/30 20:49:42;;;;;;;29.20;16.00;;;;;;;11.08;95.68;99047.48;214470;1309;24263;-74
2022/10/30 20:54:44;;;;;;;32.00;17.00;;;;;;;11.02;95.80;99047.15;214424;1309;26459;-74
2022/10/30 20:59:46;;;;;;;30.30;16.40;;;;;;;10.97;95.98;99051.02;214491;1304;25214;-72
2022/10/30 21:04:48;;;;;;;29.40;15.90;;;;;;;10.93;96.04;99052.82;214708;1308;25226;-73
2022/10/30 21:09:51;;;;;;;23.50;13.40;;;;;;;10.92;96.29;99053.05;214607;1309;22484;-73
2022/10/30 21:14:52;;;;;;;25.30;14.10;;;;;;;10.89;96.39;99049.01;214628;1309;24311;-74
2022/10/30 21:19:54;;;;;;;27.20;13.80;;;;;;;10.90;96.73;99047.34;214532;1309;25228;-73
2022/10/30 21:24:56;;;;;;;23.30;13.10;;;;;;;10.91;96.96;99047.48;214345;1309;24304;-72
2022/10/30 21:29:58;;;;;;;24.90;14.40;;;;;;;10.92;97.10;99047.47;214520;1309;25325;-73
2022/10/30 21:35:00;;;;;;;25.50;13.80;;;;;;;10.92;97.14;99043.56;214567;1304;22473;-73
2022/10/30 21:40:03;;;;;;;29.60;14.10;;;;;;;10.91;97.22;99046.83;214655;1309;22484;-73
2022/10/30 21:45:06;;;;;;;27.40;14.20;;;;;;;10.93;97.57;99041.51;214761;1309;22479;-74
2022/10/30 21:50:08;;;;;;;25.50;14.30;;;;;;;10.95;97.73;99036.72;214547;1309;22452;-73
2022/10/30 21:55:13;;;;;;;29.60;14.10;;;;;;;10.94;97.91;99032.82;214682;1309;22528;-73
2022/10/30 22:00:15;;;;;;;26.60;14.10;;;;;;;10.93;98.00;99032.92;214607;1309;22480;-73
2022/10/30 22:05:17;;;;;;;22.20;12.70;;;;;;;10.93;98.27;99025.64;214667;1303;22985;-74
2022/10/30 22:10:19;;;;;;;23.90;13.50;;;;;;;10.92;98.39;99029.89;214782;1309;22545;-73
2022/10/30 22:15:21;;;;;;;28.50;14.50;;;;;;;10.90;98.36;99022.94;214597;1309;22472;-74
2022/10/30 22:20:22;;;;;;;24.90;13.30;;;;;;;10.89;98.45;99019.84;214706;1309;22551;-73
2022/10/30 22:25:24;;;;;;;26.80;13.60;;;;;;;10.86;98.34;99021.75;214608;1309;22477;-73
2022/10/30 22:30:26;;;;;;;24.90;14.00;;;;;;;10.82;98.48;99017.49;214589;1309;24399;-73
2022/10/30 22:35:28;;;;;;;25.70;13.40;;;;;;;10.77;98.71;99011.16;214499;1309;25377;-72
2022/10/30 22:40:29;;;;;;;23.70;13.00;;;;;;;10.74;98.82;99012.86;214585;1309;23780;-73
2022/10/30 22:45:31;;;;;;;25.90;14.50;;;;;;;10.71;98.69;99017.17;214752;1309;22968;-73
2022/10/30 22:50:33;;;;;;;24.00;12.60;;;;;;;10.69;99.12;99018.69;214540;1309;24217;-72
2022/10/30 22:55:35;;;;;;;25.10;13.80;;;;;;;10.67;99.09;99018.18;214652;1309;22828;-73
2022/10/30 23:00:37;;;;;;;24.80;13.40;;;;;;;10.65;99.17;99019.70;214658;1309;22778;-73
2022/10/30 23:05:38;;;;;;;26.20;13.60;;;;;;;10.63;99.35;99018.91;214558;1307;22593;-73
2022/10/30 23:10:40;;;;;;;24.70;13.40;;;;;;;10.62;99.53;99018.72;214533;1309;22504;-73
2022/10/30 23:15:42;;;;;;;24.20;12.60;;;;;;;10.59;99.56;99030.27;214656;1309;22464;-73
2022/10/30 23:20:46;;;;;;;27.10;13.80;;;;;;;10.55;99.53;99031.05;214631;1309;24268;-73